createdAt,value
2019-01-15T00:01:56.961Z,5.14
2019-01-15T00:04:26.049Z,5.08
2019-01-15T00:06:55.752Z,5.15
2019-01-15T00:09:27.140Z,4.93
2019-01-15T00:11:56.231Z,5.14
2019-01-15T00:14:25.344Z,4.96
2019-01-15T00:16:55.538Z,4.75
2019-01-15T00:19:24.613Z,4.97
2019-01-15T00:21:57.751Z,5.11
2019-01-15T00:24:26.942Z,4.81
2019-01-15T00:27:03.465Z,4.35
2019-01-15T00:29:35.604Z,4.63
2019-01-15T00:32:05.044Z,4.37
2019-01-15T00:34:37.164Z,4.43
2019-01-15T00:37:06.663Z,4.68
2019-01-15T00:39:35.884Z,4.90
2019-01-15T00:42:05.312Z,4.55
2019-01-15T00:44:34.438Z,4.34
2019-01-15T00:47:06.943Z,4.71
2019-01-15T00:49:36.114Z,4.96
2019-01-15T00:52:06.497Z,4.31
2019-01-15T00:54:35.588Z,4.19
2019-01-15T00:57:11.968Z,4.38
2019-01-15T00:59:43.099Z,4.54
2019-01-15T01:02:15.019Z,4.49
2019-01-15T01:04:44.179Z,4.67
2019-01-15T01:07:13.393Z,4.35
2019-01-15T01:09:42.616Z,4.47
2019-01-15T01:12:11.703Z,4.60
2019-01-15T01:14:40.817Z,4.79
2019-01-15T01:17:09.914Z,5.24
2019-01-15T01:19:40.729Z,5.31
2019-01-15T01:22:09.828Z,4.83
2019-01-15T01:24:38.940Z,-4.87
2019-01-15T01:27:08.418Z,5.04
2019-01-15T01:29:41.092Z,4.99
2019-01-15T01:32:10.172Z,4.75
2019-01-15T01:34:39.271Z,5.29
2019-01-15T01:37:08.593Z,5.19
2019-01-15T01:39:37.769Z,4.96
2019-01-15T01:42:10.302Z,5.33
2019-01-15T01:44:39.458Z,5.06
2019-01-15T01:47:08.562Z,4.66
2019-01-15T01:49:37.863Z,4.39
2019-01-15T01:52:08.075Z,4.96
2019-01-15T01:54:42.003Z,4.48
2019-01-15T01:57:11.148Z,5.17
2019-01-15T01:59:40.241Z,4.75
2019-01-15T02:10:41.029Z,4.33
2019-01-15T02:13:10.131Z,4.11
2019-01-15T02:15:39.228Z,3.94
2019-01-15T02:18:08.300Z,4.02
2019-01-15T02:20:37.522Z,4.23
2019-01-15T02:23:08.210Z,4.38
2019-01-15T02:25:40.074Z,4.23
2019-01-15T02:28:11.403Z,4.31
2019-01-15T02:30:40.519Z,4.20
2019-01-15T02:33:09.636Z,4.29
2019-01-15T02:35:44.157Z,4.26
2019-01-15T02:38:16.379Z,4.28
2019-01-15T02:40:46.824Z,4.02
2019-01-15T02:43:16.007Z,4.23
2019-01-15T02:45:45.104Z,4.34
2019-01-15T02:48:15.246Z,4.39
2019-01-15T02:50:45.727Z,3.94
2019-01-15T02:53:14.871Z,4.29
2019-01-15T02:55:46.948Z,4.17
2019-01-15T02:58:16.166Z,4.01
2019-01-15T03:00:45.279Z,4.01
2019-01-15T03:03:14.394Z,4.28
2019-01-15T03:05:43.559Z,4.20
2019-01-15T03:08:12.717Z,4.44
2019-01-15T03:10:43.202Z,4.44
2019-01-15T03:13:12.398Z,4.94
2019-01-15T03:15:44.626Z,4.67
2019-01-15T03:18:13.718Z,4.50
2019-01-15T03:20:44.192Z,4.96
2019-01-15T03:23:14.793Z,5.09
2019-01-15T03:25:43.914Z,4.86
2019-01-15T03:28:14.557Z,5.66
2019-01-15T03:30:43.698Z,5.27
2019-01-15T03:33:23.436Z,4.49
2019-01-15T03:35:54.129Z,4.50
2019-01-15T03:38:23.232Z,4.48
2019-01-15T03:40:53.903Z,4.69
2019-01-15T03:43:23.057Z,4.37
2019-01-15T03:45:54.350Z,4.19
2019-01-15T03:48:23.451Z,4.28
2019-01-15T03:50:52.867Z,4.54
2019-01-15T03:53:21.976Z,4.37
2019-01-15T03:55:51.101Z,4.52
2019-01-15T03:58:22.007Z,4.88
2019-01-15T04:00:55.629Z,5.40
2019-01-15T04:03:24.726Z,4.68
2019-01-15T04:06:03.776Z,4.67
2019-01-15T04:08:32.911Z,4.33
2019-01-15T04:11:02.166Z,5.00
2019-01-15T04:13:31.233Z,4.71
2019-01-15T04:16:00.358Z,4.61
2019-01-15T04:18:31.511Z,4.66
2019-01-15T04:21:01.851Z,4.62
2019-01-15T04:23:30.961Z,2.19
2019-01-15T04:26:03.454Z,4.40
2019-01-15T04:28:33.754Z,4.41
2019-01-15T04:31:02.865Z,4.53
2019-01-15T04:33:33.706Z,5.03
2019-01-15T04:36:02.835Z,4.75
2019-01-15T04:38:39.048Z,4.89
2019-01-15T04:41:08.136Z,5.41
2019-01-15T04:43:41.185Z,4.58
2019-01-15T04:46:10.289Z,4.81
2019-01-15T04:48:42.300Z,4.67
2019-01-15T04:51:13.957Z,4.56
2019-01-15T04:53:46.479Z,4.73
2019-01-15T04:56:18.307Z,4.64
2019-01-15T04:58:47.450Z,4.56
2019-01-15T05:01:23.191Z,4.59
2019-01-15T05:03:58.490Z,4.59
2019-01-15T05:06:26.066Z,4.58
2019-01-15T05:09:01.536Z,4.56
2019-01-15T05:11:26.476Z,4.58
2019-01-15T05:13:55.755Z,4.62
2019-01-15T05:16:25.999Z,4.60
2019-01-15T05:18:58.270Z,4.58
2019-01-15T05:21:31.851Z,4.58
2019-01-15T05:23:58.742Z,4.47
2019-01-15T05:26:28.312Z,4.59
2019-01-15T05:28:58.037Z,4.79
2019-01-15T05:31:28.743Z,4.66
2019-01-15T05:33:58.301Z,4.33
2019-01-15T05:36:28.824Z,4.74
2019-01-15T05:39:00.794Z,4.70
2019-01-15T05:41:45.085Z,4.83
2019-01-15T05:44:14.294Z,4.91
2019-01-15T05:46:44.800Z,5.29
2019-01-15T05:49:16.992Z,4.73
2019-01-15T05:51:46.764Z,4.39
2019-01-15T05:54:16.913Z,4.34
2019-01-15T05:56:47.984Z,4.51
2019-01-15T05:59:20.886Z,4.33
2019-01-15T06:01:53.412Z,4.54
2019-01-15T06:04:25.518Z,4.57
2019-01-15T06:06:54.702Z,4.47
2019-01-15T06:09:28.184Z,1.66
2019-01-15T06:11:58.686Z,4.32
2019-01-15T06:14:31.164Z,4.41
2019-01-15T06:17:00.329Z,4.21
2019-01-15T06:19:31.470Z,4.34
2019-01-15T06:22:00.638Z,4.12
2019-01-15T06:24:30.664Z,4.42
2019-01-15T06:27:00.171Z,4.32
2019-01-15T06:29:32.084Z,4.75
2019-01-15T06:32:07.209Z,4.17
2019-01-15T06:34:36.426Z,4.05
2019-01-15T06:37:07.596Z,4.05
2019-01-15T06:39:36.751Z,4.26
2019-01-15T06:42:08.465Z,4.09
2019-01-15T06:44:40.483Z,4.38
2019-01-15T06:47:12.665Z,4.20
2019-01-15T06:49:41.796Z,4.31
2019-01-15T06:52:10.939Z,4.35
2019-01-15T06:54:40.099Z,4.13
2019-01-15T06:57:09.229Z,4.09
2019-01-15T06:59:39.637Z,4.02
2019-01-15T07:02:09.218Z,3.85
2019-01-15T07:04:43.753Z,3.89
2019-01-15T07:07:10.794Z,3.78
2019-01-15T07:09:42.609Z,3.77
2019-01-15T07:12:12.974Z,3.75
2019-01-15T07:14:49.248Z,4.05
2019-01-15T07:17:32.711Z,3.96
2019-01-15T07:20:04.988Z,4.00
2019-01-15T07:22:37.361Z,3.94
2019-01-15T07:25:08.025Z,4.08
2019-01-15T07:27:40.265Z,3.78
2019-01-15T07:30:28.835Z,4.01
2019-01-15T07:32:58.031Z,3.76
2019-01-15T07:35:27.181Z,3.59
2019-01-15T07:37:57.940Z,3.57
2019-01-15T07:40:28.222Z,3.76
2019-01-15T07:42:59.756Z,3.74
2019-01-15T07:45:31.032Z,3.62
2019-01-15T07:48:12.393Z,3.70
2019-01-15T07:50:41.580Z,3.86
2019-01-15T07:53:10.758Z,3.86
2019-01-15T07:55:40.054Z,3.75
2019-01-15T07:58:10.054Z,3.56
2019-01-15T08:00:47.710Z,3.65
2019-01-15T08:03:18.458Z,3.60
2019-01-15T08:05:56.177Z,3.66
2019-01-15T08:08:26.807Z,3.65
2019-01-15T08:10:57.173Z,3.81
2019-01-15T08:13:31.349Z,3.72
2019-01-15T08:16:21.766Z,3.69
2019-01-15T08:18:57.157Z,3.75
2019-01-15T08:21:27.579Z,3.65
2019-01-15T08:23:56.688Z,3.81
2019-01-15T08:26:26.061Z,3.62
2019-01-15T08:28:56.713Z,3.80
2019-01-15T08:31:27.178Z,3.73
2019-01-15T08:34:02.567Z,3.78
2019-01-15T08:36:32.005Z,3.84
2019-01-15T08:39:05.973Z,3.86
2019-01-15T08:41:35.429Z,3.86
2019-01-15T08:44:09.689Z,3.89
2019-01-15T08:46:44.848Z,3.99
2019-01-15T08:49:16.639Z,3.93
2019-01-15T08:51:49.273Z,4.21
2019-01-15T08:54:19.346Z,4.04
2019-01-15T08:56:50.828Z,2.03
2019-01-15T08:59:23.925Z,4.35
2019-01-15T09:01:57.654Z,4.39
2019-01-15T09:04:26.738Z,4.13
2019-01-15T09:06:57.871Z,4.22
2019-01-15T09:09:28.175Z,4.40
2019-01-15T09:11:59.023Z,4.45
2019-01-15T09:14:30.894Z,4.44
2019-01-15T09:16:59.991Z,4.24
2019-01-15T09:19:30.710Z,4.26
2019-01-15T09:21:59.834Z,4.43
2019-01-15T09:24:29.069Z,4.54
2019-01-15T09:26:58.604Z,4.45
2019-01-15T09:29:28.980Z,4.75
2019-01-15T09:31:58.057Z,4.90
2019-01-15T09:34:27.424Z,5.13
2019-01-15T09:36:58.468Z,5.32
2019-01-15T09:39:30.233Z,5.40
2019-01-15T09:41:59.339Z,5.30
2019-01-15T09:44:34.021Z,5.43
2019-01-15T09:47:02.447Z,5.48
2019-01-15T09:49:31.539Z,3.51
2019-01-15T09:52:04.671Z,5.75
2019-01-15T09:54:38.011Z,5.34
2019-01-15T09:57:07.364Z,5.77
2019-01-15T09:59:39.189Z,6.27
2019-01-15T10:02:10.950Z,6.10
2019-01-15T10:04:41.119Z,6.02
2019-01-15T10:07:16.446Z,5.77
2019-01-15T10:09:47.608Z,6.07
2019-01-15T10:12:19.083Z,6.20
2019-01-15T10:14:48.828Z,5.88
2019-01-15T10:17:17.962Z,6.41
2019-01-15T10:19:54.602Z,6.34
2019-01-15T10:22:27.702Z,5.91
2019-01-15T10:24:58.137Z,6.04
2019-01-15T10:27:27.745Z,6.05
2019-01-15T10:30:00.620Z,6.23
2019-01-15T10:33:11.163Z,6.46
2019-01-15T10:36:00.165Z,6.14
2019-01-15T10:38:33.111Z,6.19
2019-01-15T10:41:04.269Z,5.75
2019-01-15T10:43:37.391Z,5.78
2019-01-15T10:46:07.164Z,6.11
2019-01-15T10:48:36.553Z,6.49
2019-01-15T10:51:06.752Z,6.10
2019-01-15T10:53:36.324Z,6.31
2019-01-15T10:56:07.420Z,6.04
2019-01-15T10:58:38.022Z,6.34
2019-01-15T11:01:10.408Z,6.70
2019-01-15T11:03:40.274Z,4.67
2019-01-15T11:06:12.432Z,6.13
2019-01-15T11:08:41.828Z,6.28
2019-01-15T11:11:11.342Z,6.61
2019-01-15T11:13:41.663Z,5.94
2019-01-15T11:16:11.787Z,6.52
2019-01-15T11:18:40.932Z,6.49
2019-01-15T11:21:14.959Z,6.42
2019-01-15T11:23:46.070Z,6.68
2019-01-15T11:26:16.730Z,6.60
2019-01-15T11:28:46.030Z,6.66
2019-01-15T11:31:15.338Z,6.83
2019-01-15T11:33:49.259Z,4.95
2019-01-15T11:36:18.824Z,6.29
2019-01-15T11:38:50.304Z,6.32
2019-01-15T11:41:19.831Z,6.52
2019-01-15T11:43:49.079Z,6.93
2019-01-15T11:46:20.298Z,7.02
2019-01-15T11:48:49.929Z,6.60
2019-01-15T11:51:21.420Z,6.92
2019-01-15T11:53:57.956Z,6.60
2019-01-15T11:56:30.444Z,6.55
2019-01-15T11:59:00.229Z,6.61
2019-01-15T12:01:47.324Z,3.06
2019-01-15T12:04:50.590Z,6.60
2019-01-15T12:07:37.967Z,6.82
2019-01-15T12:10:31.521Z,6.49
2019-01-15T12:13:31.980Z,6.25
2019-01-15T12:16:40.248Z,6.63
2019-01-15T12:19:25.452Z,6.27
2019-01-15T12:22:25.448Z,6.62
2019-01-15T12:25:22.716Z,6.48
2019-01-15T12:28:18.421Z,6.75
2019-01-15T12:31:02.655Z,6.30
2019-01-15T12:34:06.041Z,6.67
2019-01-15T12:36:52.814Z,6.46
2019-01-15T12:39:40.188Z,6.89
2019-01-15T12:42:22.052Z,6.67
2019-01-15T12:45:18.440Z,6.66
2019-01-15T12:48:11.743Z,7.04
2019-01-15T12:51:05.054Z,7.13
2019-01-15T12:54:05.192Z,6.75
2019-01-15T12:56:59.328Z,-2.32
2019-01-15T12:59:59.688Z,-4.01
2019-01-15T13:02:48.215Z,6.39
2019-01-15T13:05:35.008Z,6.46
2019-01-15T13:08:24.346Z,6.21
2019-01-15T13:11:14.042Z,6.06
2019-01-15T13:14:11.159Z,6.44
2019-01-15T13:16:56.740Z,6.42
2019-01-15T13:19:44.386Z,5.96
2019-01-15T13:22:42.863Z,6.27
2019-01-15T13:25:43.353Z,6.38
2019-01-15T13:28:25.152Z,6.32
2019-01-15T13:31:09.003Z,6.35
2019-01-15T13:34:14.500Z,6.44
2019-01-15T13:37:00.240Z,7.00
2019-01-15T13:39:52.831Z,6.65
2019-01-15T13:42:53.006Z,6.71
2019-01-15T13:45:43.640Z,6.66
2019-01-15T13:48:32.667Z,6.94
2019-01-15T13:51:30.269Z,7.53
2019-01-15T13:54:33.784Z,7.50
2019-01-15T13:57:14.377Z,6.93
2019-01-15T13:59:57.252Z,6.75
2019-01-15T14:02:58.986Z,6.52
2019-01-15T14:05:45.787Z,6.39
2019-01-15T14:08:51.512Z,6.40
2019-01-15T14:11:46.598Z,6.44
2019-01-15T14:14:35.783Z,6.84
2019-01-15T14:27:16.365Z,6.02
2019-01-15T14:32:03.710Z,5.34
2019-01-15T14:34:47.375Z,6.49
2019-01-15T14:37:38.909Z,-2.78
2019-01-15T14:40:23.938Z,6.50
2019-01-15T14:43:09.454Z,6.38
2019-01-15T14:45:56.540Z,6.77
2019-01-15T14:49:01.131Z,6.46
2019-01-15T14:52:01.312Z,6.64
2019-01-15T14:54:52.093Z,6.90
2019-01-15T14:57:48.365Z,6.80
2019-01-15T15:00:36.568Z,6.82
2019-01-15T15:03:27.525Z,6.78
2019-01-15T15:06:26.432Z,6.69
2019-01-15T15:09:20.132Z,6.69
2019-01-15T15:12:03.387Z,6.45
2019-01-15T15:15:00.595Z,6.77
2019-01-15T15:17:53.856Z,6.60
2019-01-15T15:20:53.956Z,6.92
2019-01-15T15:23:48.086Z,6.60
2019-01-15T15:26:54.193Z,7.26
2019-01-15T15:29:38.801Z,6.86
2019-01-15T15:32:25.346Z,6.78
2019-01-15T15:35:12.235Z,6.75
2019-01-15T15:38:02.304Z,7.04
2019-01-15T15:40:56.470Z,6.53
2019-01-15T15:43:44.570Z,-2.95
2019-01-15T15:46:39.502Z,6.34
2019-01-15T15:49:26.440Z,6.70
2019-01-15T15:52:21.560Z,6.51
2019-01-15T15:55:08.612Z,6.78
2019-01-15T15:58:18.180Z,6.97
2019-01-15T16:01:04.227Z,6.69
2019-01-15T16:04:08.070Z,6.80
2019-01-15T16:07:11.451Z,6.87
2019-01-15T16:10:12.720Z,6.62
2019-01-15T16:12:59.973Z,6.99
2019-01-15T16:15:54.719Z,6.67
2019-01-15T16:19:02.853Z,6.71
2019-01-15T16:21:49.815Z,7.10
2019-01-15T16:24:29.826Z,6.75
2019-01-15T16:27:21.375Z,6.68
2019-01-15T16:30:30.741Z,4.89
2019-01-15T16:33:17.486Z,6.48
2019-01-15T16:36:03.951Z,6.34
2019-01-15T16:38:58.185Z,6.41
2019-01-15T16:41:55.200Z,6.46
2019-01-15T16:44:43.272Z,6.52
2019-01-15T16:47:31.558Z,6.50
2019-01-15T16:50:33.160Z,6.34
2019-01-15T16:53:23.330Z,6.90
2019-01-15T16:56:20.474Z,6.68
2019-01-15T16:59:07.429Z,6.63
2019-01-15T17:01:48.556Z,6.60
2019-01-15T17:04:36.271Z,6.54
2019-01-15T17:07:27.637Z,6.33
2019-01-15T17:10:14.701Z,6.74
2019-01-15T17:12:57.655Z,6.70
2019-01-15T17:16:03.926Z,6.72
2019-01-15T17:18:41.664Z,6.68
2019-01-15T17:21:49.661Z,6.77
2019-01-15T17:24:43.716Z,7.24
2019-01-15T17:27:38.819Z,7.51
2019-01-15T17:30:19.749Z,6.75
2019-01-15T17:33:16.268Z,7.07
2019-01-15T17:36:04.319Z,6.96
2019-01-15T17:38:51.153Z,6.44
2019-01-15T17:41:54.185Z,6.74
2019-01-15T17:44:31.324Z,6.73
2019-01-15T17:47:18.281Z,6.67
2019-01-15T17:50:07.199Z,6.63
2019-01-15T17:52:59.972Z,6.84
2019-01-15T17:55:48.034Z,6.46
2019-01-15T17:58:36.245Z,6.52
2019-01-15T18:01:30.489Z,6.49
2019-01-15T18:04:33.072Z,6.86
2019-01-15T18:07:20.200Z,6.58
2019-01-15T18:10:26.550Z,6.79
2019-01-15T18:13:13.730Z,6.68
2019-01-15T18:16:02.785Z,6.42
2019-01-15T18:18:51.344Z,6.53
2019-01-15T18:21:44.971Z,6.40
2019-01-15T18:24:31.776Z,6.48
2019-01-15T18:27:17.489Z,6.42
2019-01-15T18:30:05.747Z,6.08
2019-01-15T18:32:52.746Z,6.88
2019-01-15T18:35:42.559Z,6.70
2019-01-15T18:38:29.553Z,6.93
2019-01-15T18:41:20.687Z,7.20
2019-01-15T18:44:07.228Z,6.93
2019-01-15T18:47:03.496Z,6.82
2019-01-15T18:49:57.578Z,6.47
2019-01-15T18:52:43.628Z,6.43
2019-01-15T18:55:30.356Z,6.42
2019-01-15T18:58:30.786Z,6.57
2019-01-15T19:01:37.671Z,6.65
2019-01-15T19:04:31.057Z,6.50
2019-01-15T19:07:25.303Z,6.42
2019-01-15T19:10:15.184Z,6.61
2019-01-15T19:13:11.748Z,6.39
2019-01-15T19:15:58.680Z,6.37
2019-01-15T19:18:58.285Z,6.46
2019-01-15T19:21:46.422Z,6.25
2019-01-15T19:24:55.404Z,6.21
2019-01-15T19:27:56.682Z,6.31
2019-01-15T19:30:43.431Z,6.65
2019-01-15T19:33:32.606Z,6.80
2019-01-15T19:36:25.270Z,6.39
2019-01-15T19:39:19.312Z,6.66
2019-01-15T19:42:12.155Z,6.79
2019-01-15T19:45:02.213Z,6.61
2019-01-15T19:47:56.282Z,6.69
2019-01-15T19:51:04.231Z,6.54
2019-01-15T19:54:04.910Z,6.75
2019-01-15T19:56:55.992Z,6.70
2019-01-15T19:59:56.318Z,6.75
2019-01-15T20:02:47.446Z,6.76
2019-01-15T20:05:36.216Z,6.45
2019-01-15T20:08:36.330Z,6.28
2019-01-15T20:11:26.249Z,6.72
2019-01-15T20:14:23.199Z,6.63
2019-01-15T20:17:17.995Z,6.88
2019-01-15T20:19:59.608Z,6.42
2019-01-15T20:22:59.665Z,6.81
2019-01-15T20:25:48.011Z,6.52
2019-01-15T20:28:30.671Z,6.63
2019-01-15T20:31:24.939Z,6.49
2019-01-15T20:34:20.499Z,6.66
2019-01-15T20:37:13.837Z,6.73
2019-01-15T20:40:14.148Z,6.67
2019-01-15T20:42:55.324Z,6.74
2019-01-15T20:46:01.481Z,6.49
2019-01-15T20:48:52.023Z,6.59
2019-01-15T20:51:43.512Z,6.44
2019-01-15T20:54:40.634Z,6.54
2019-01-15T20:57:33.313Z,6.54
2019-01-15T21:00:19.703Z,6.55
2019-01-15T21:03:25.150Z,6.35
2019-01-15T21:06:31.484Z,6.41
2019-01-15T21:09:22.660Z,6.36
2019-01-15T21:12:11.060Z,6.34
2019-01-15T21:15:02.824Z,6.95
2019-01-15T21:17:57.146Z,6.59
2019-01-15T21:20:48.358Z,6.52
2019-01-15T21:23:56.723Z,6.36
2019-01-15T21:26:49.968Z,6.29
2019-01-15T21:29:31.064Z,6.48
2019-01-15T21:32:22.129Z,6.52
2019-01-15T21:35:22.072Z,6.98
2019-01-15T21:38:22.501Z,6.86
2019-01-15T21:41:16.389Z,7.17
2019-01-15T21:44:16.393Z,6.60
2019-01-15T21:47:07.462Z,6.84
2019-01-15T21:49:48.913Z,6.77
2019-01-15T21:52:53.163Z,6.60
2019-01-15T21:55:47.594Z,6.54
2019-01-15T21:58:33.041Z,6.48
2019-01-15T22:01:27.654Z,6.32
2019-01-15T22:04:14.720Z,6.59
2019-01-15T22:07:10.942Z,7.07
2019-01-15T22:10:01.640Z,6.92
2019-01-15T22:12:48.686Z,7.19
2019-01-15T22:15:49.530Z,6.61
2019-01-15T22:18:28.702Z,6.64
2019-01-15T22:21:25.679Z,6.31
2019-01-15T22:24:25.236Z,6.87
2019-01-15T22:27:19.563Z,6.86
2019-01-15T22:30:16.534Z,6.81
2019-01-15T22:33:03.446Z,6.57
2019-01-15T22:36:03.662Z,6.72
2019-01-15T22:38:45.101Z,6.77
2019-01-15T22:41:36.610Z,6.70
2019-01-15T22:44:41.033Z,6.44
2019-01-15T22:47:46.389Z,6.58
2019-01-15T22:50:43.032Z,6.49
2019-01-15T22:53:40.085Z,6.77
2019-01-15T22:56:40.962Z,6.90
2019-01-15T22:59:31.483Z,6.36
2019-01-15T23:02:09.105Z,6.68
2019-01-15T23:04:58.983Z,6.36
2019-01-15T23:07:56.213Z,6.83
2019-01-15T23:10:50.090Z,6.89
2019-01-15T23:13:31.920Z,7.09
2019-01-15T23:16:25.644Z,7.04
2019-01-15T23:19:07.253Z,6.93
2019-01-15T23:21:57.154Z,6.62
2019-01-15T23:24:48.694Z,7.23
2019-01-15T23:27:52.024Z,7.04
2019-01-15T23:30:51.003Z,7.16
2019-01-15T23:33:38.732Z,7.32
2019-01-15T23:36:28.158Z,6.83
2019-01-15T23:39:15.217Z,7.09
2019-01-15T23:42:09.063Z,7.12
2019-01-15T23:45:04.803Z,7.40
2019-01-15T23:47:55.883Z,7.14
2019-01-15T23:50:44.722Z,7.42
2019-01-15T23:53:34.086Z,6.91
2019-01-15T23:56:23.623Z,6.89
2019-01-15T23:59:10.519Z,6.90
